Time;durP1;ratioP1;P1;durP2;ratioP2;P2;SDS_P1;SDS_P2;PMS_P1;PMS_P2;Temp;Humidity;BMP_temperature;BMP_pressure;BME280_temperature;BME280_humidity;BME280_pressure;Samples;Min_cycle;Max_cycle;Signal;HPM_P1;HPM_P2
2023/07/11 02:57:15;;;;;;;10.10;8.00;;;;;;;19.59;86.37;99008.22;107350;1289;545383;-51
2023/07/11 02:59:40;;;;;;;11.90;7.70;;;;;;;19.62;85.87;99017.59;107701;1309;22986;-50
2023/07/11 03:02:06;;;;;;;13.50;7.90;;;;;;;19.64;85.42;99016.98;107706;1310;22467;-41
2023/07/11 03:04:32;;;;;;;14.10;7.70;;;;;;;19.62;85.13;99017.73;107688;1309;22275;-50
2023/07/11 03:06:58;;;;;;;11.80;8.20;;;;;;;19.59;84.48;99016.81;107694;1310;23062;-47
2023/07/11 03:09:25;;;;;;;11.60;7.90;;;;;;;19.49;85.83;99015.61;107700;1309;22461;-51
2023/07/11 03:11:51;;;;;;;12.70;8.50;;;;;;;19.45;85.77;99017.05;107850;1307;160805;-49
2023/07/11 03:14:18;;;;;;;12.70;8.20;;;;;;;19.44;85.77;99015.08;107992;1307;22323;-46
2023/07/11 03:16:43;;;;;;;10.50;9.00;;;;;;;19.41;85.68;99017.64;108028;1307;22467;-52
2023/07/11 03:19:09;;;;;;;12.30;8.20;;;;;;;19.43;85.14;99016.89;107986;1307;22666;-49
2023/07/11 03:21:34;;;;;;;14.60;8.00;;;;;;;19.42;85.56;99017.91;107980;1307;23012;-52
2023/07/11 03:23:59;;;;;;;11.10;8.40;;;;;;;19.44;84.97;99023.36;107994;1307;22421;-49
2023/07/11 03:26:25;;;;;;;12.60;7.60;;;;;;;19.42;84.59;99021.98;107973;1307;23165;-47
2023/07/11 03:28:50;;;;;;;14.60;8.10;;;;;;;19.36;85.03;99024.27;107987;1307;22251;-51
2023/07/11 03:31:16;;;;;;;10.10;7.30;;;;;;;19.31;86.31;99030.52;107995;1285;23398;-48
2023/07/11 03:33:42;;;;;;;8.80;7.40;;;;;;;19.31;85.23;99029.92;107980;1307;22884;-51
2023/07/11 03:36:07;;;;;;;10.60;7.80;;;;;;;19.23;86.04;99030.14;107989;1307;22318;-48
2023/07/11 03:38:32;;;;;;;17.10;8.60;;;;;;;19.17;86.04;99034.70;108001;1307;22429;-47
2023/07/11 03:40:58;;;;;;;9.10;7.60;;;;;;;19.15;85.95;99034.30;108000;1307;23020;-43
2023/07/11 03:43:23;;;;;;;11.40;8.00;;;;;;;19.18;85.04;99035.99;107982;1307;22731;-50
2023/07/11 03:45:48;;;;;;;11.30;7.70;;;;;;;19.14;85.33;99040.63;107982;1307;22446;-46
2023/07/11 03:48:15;;;;;;;11.80;7.90;;;;;;;19.11;85.82;99041.06;108026;1307;22567;-46
2023/07/11 03:50:40;;;;;;;16.60;8.10;;;;;;;19.10;85.98;99042.55;107989;1307;22635;-46
2023/07/11 03:53:06;;;;;;;10.90;7.80;;;;;;;19.10;85.15;99047.61;107983;1307;22186;-49
2023/07/11 03:55:31;;;;;;;13.10;7.50;;;;;;;19.01;85.82;99045.98;107991;1307;22400;-46
2023/07/11 03:57:57;;;;;;;15.50;7.40;;;;;;;18.97;86.17;99046.86;108005;1307;22315;-48
2023/07/11 04:00:22;;;;;;;9.00;6.90;;;;;;;19.00;85.32;99046.20;107995;1292;23047;-47
2023/07/11 04:02:48;;;;;;;11.30;6.70;;;;;;;18.95;85.26;99043.33;108007;1307;22977;-48
2023/07/11 04:05:13;;;;;;;11.50;7.20;;;;;;;18.95;85.47;99049.33;107996;1307;22229;-45
2023/07/11 04:07:38;;;;;;;8.90;6.90;;;;;;;18.97;85.41;99048.27;107972;1307;22225;-49
2023/07/11 04:10:07;;;;;;;11.40;7.00;;;;;;;19.03;84.33;99045.38;107981;1307;22291;-46
2023/07/11 04:12:32;;;;;;;16.80;7.40;;;;;;;19.03;84.34;99047.03;107973;1307;22218;-44
2023/07/11 04:14:58;;;;;;;9.00;6.80;;;;;;;19.04;84.57;99050.84;107992;1307;22250;-47
2023/07/11 04:17:23;;;;;;;10.10;7.30;;;;;;;19.08;83.95;99055.23;107987;1307;22445;-53
2023/07/11 04:19:49;;;;;;;10.30;7.40;;;;;;;19.10;84.10;99056.85;107989;1307;22939;-50
2023/07/11 04:22:15;;;;;;;12.40;7.40;;;;;;;19.12;83.98;99065.81;107949;1307;22419;-56
2023/07/11 04:24:42;;;;;;;13.50;7.10;;;;;;;19.19;83.76;99072.48;107923;1305;22470;-44
2023/07/11 04:27:07;;;;;;;11.00;7.40;;;;;;;19.22;83.00;99080.22;107959;1307;23360;-55
2023/07/11 04:29:32;;;;;;;9.70;7.10;;;;;;;19.22;83.03;99082.04;107955;1307;22412;-46
2023/07/11 04:31:58;;;;;;;13.20;7.40;;;;;;;19.20;82.67;99085.75;107941;1307;22997;-44
2023/07/11 04:34:23;;;;;;;12.60;7.80;;;;;;;19.23;81.92;99086.30;107972;1307;22259;-50
2023/07/11 04:36:48;;;;;;;13.80;7.40;;;;;;;19.22;82.11;99089.31;107961;1307;22278;-49
2023/07/11 04:39:14;;;;;;;11.30;8.00;;;;;;;19.23;82.12;99090.45;107933;1307;22228;-50
2023/07/11 04:41:39;;;;;;;9.40;7.10;;;;;;;19.29;81.72;99095.60;107966;1307;22411;-53
2023/07/11 04:44:04;;;;;;;10.50;7.40;;;;;;;19.34;81.25;99096.29;107955;1307;24232;-54
2023/07/11 04:46:29;;;;;;;15.60;8.00;;;;;;;19.38;81.45;99094.67;107989;1307;22260;-48
2023/07/11 04:48:55;;;;;;;15.40;7.50;;;;;;;19.45;80.87;99094.53;107968;1307;22340;-46
2023/07/11 04:51:20;;;;;;;10.70;7.50;;;;;;;19.53;80.69;99091.48;107949;1292;22433;-54
2023/07/11 04:53:46;;;;;;;10.30;7.90;;;;;;;19.59;80.88;99088.60;107938;1307;22422;-46
2023/07/11 04:56:11;;;;;;;12.00;7.70;;;;;;;19.65;80.34;99092.55;107946;1307;22221;-51
2023/07/11 04:58:37;;;;;;;13.20;7.80;;;;;;;19.70;80.06;99092.02;107930;1307;22262;-46
2023/07/11 05:01:06;;;;;;;10.60;7.60;;;;;;;19.71;80.48;99088.90;107979;1307;23252;-46
2023/07/11 05:03:31;;;;;;;12.60;7.60;;;;;;;19.75;80.57;99092.82;108039;1306;22398;-52
2023/07/11 05:05:57;;;;;;;12.80;8.30;;;;;;;19.83;79.61;99094.70;108041;1306;22249;-48
2023/07/11 05:08:23;;;;;;;12.90;8.00;;;;;;;19.78;79.67;99103.38;108044;1306;22235;-51
2023/07/11 05:11:03;;;;;;;19.20;8.50;;;;;;;19.76;79.70;99110.63;108055;1306;22362;-53
2023/07/11 05:13:30;;;;;;;17.70;8.50;;;;;;;19.75;79.47;99117.45;108043;1306;23198;-55
2023/07/11 05:16:02;;;;;;;;;;;;;;;19.73;79.38;99124.06;108073;1306;23075;-46
2023/07/11 05:18:28;;;;;;;11.80;8.00;;;;;;;19.70;79.85;99130.95;108029;1306;22266;-47
2023/07/11 05:20:55;;;;;;;18.90;8.40;;;;;;;19.71;79.81;99133.90;108019;1306;22240;-47
2023/07/11 05:23:26;;;;;;;15.30;6.80;;;;;;;19.77;79.20;99138.45;108042;1306;22237;-44
2023/07/11 05:25:52;;;;;;;16.20;6.80;;;;;;;19.78;79.10;99141.09;108037;1306;22448;-46
2023/07/11 05:28:18;;;;;;;24.00;7.70;;;;;;;19.80;78.85;99142.45;108020;1306;22253;-49
2023/07/11 05:30:43;;;;;;;14.40;6.60;;;;;;;19.86;78.17;99146.13;107823;1307;22247;-48
2023/07/11 05:33:09;;;;;;;38.30;9.50;;;;;;;19.82;77.75;99148.83;107808;1306;22234;-49
2023/07/11 05:35:45;;;;;;;8.40;5.40;;;;;;;19.87;77.27;99154.95;108028;1306;23065;-45
2023/07/11 05:38:11;;;;;;;7.20;4.20;;;;;;;19.86;75.02;99159.70;108026;1306;22281;-50
2023/07/11 05:40:40;;;;;;;8.40;5.40;;;;;;;19.85;74.62;99156.42;108033;1306;22563;-48
2023/07/11 05:43:06;;;;;;;11.00;3.70;;;;;;;19.87;73.43;99159.55;108013;1306;22284;-50
2023/07/11 05:45:31;;;;;;;7.60;4.50;;;;;;;19.92;72.38;99162.16;108036;1306;22228;-54
2023/07/11 05:47:58;;;;;;;9.70;3.00;;;;;;;19.88;70.69;99170.54;108014;1306;22518;-50
2023/07/11 05:50:24;;;;;;;9.60;3.00;;;;;;;19.82;69.12;99172.17;108028;1306;23070;-50
2023/07/11 05:52:49;;;;;;;7.00;2.50;;;;;;;19.82;68.73;99178.34;108046;1306;23063;-47
2023/07/11 05:55:15;;;;;;;9.00;2.70;;;;;;;19.83;68.01;99185.91;108016;1306;22233;-51
2023/07/11 05:57:40;;;;;;;6.00;2.50;;;;;;;19.74;66.79;99187.86;108029;1306;22930;-47
2023/07/11 06:00:09;;;;;;;5.50;2.70;;;;;;;19.65;66.19;99196.13;108042;1306;22233;-52
2023/07/11 06:02:35;;;;;;;8.90;2.20;;;;;;;19.61;66.14;99200.88;108026;1306;22211;-48
2023/07/11 06:05:01;;;;;;;17.00;3.20;;;;;;;19.63;66.19;99207.05;108016;1306;22427;-50
2023/07/11 06:07:28;;;;;;;7.30;2.40;;;;;;;19.64;65.83;99210.47;108031;1306;23201;-51
2023/07/11 06:09:54;;;;;;;7.80;2.40;;;;;;;19.64;64.75;99213.73;108018;1306;23012;-45
2023/07/11 06:12:19;;;;;;;19.40;3.00;;;;;;;19.61;64.64;99213.98;108041;1306;22200;-49
2023/07/11 06:14:44;;;;;;;22.30;3.00;;;;;;;19.58;64.56;99216.42;107957;1299;23231;-48
2023/07/11 06:17:09;;;;;;;12.10;2.20;;;;;;;19.64;65.23;99212.46;107856;1302;22430;-48
2023/07/11 06:19:35;;;;;;;7.00;2.10;;;;;;;19.74;65.42;99203.02;107985;1299;22413;-49
2023/07/11 06:22:01;;;;;;;11.80;2.40;;;;;;;19.77;64.92;99194.36;108007;1301;22225;-44
2023/07/11 06:24:26;;;;;;;9.20;2.30;;;;;;;19.83;64.97;99190.73;107953;1301;22949;-49
2023/07/11 06:26:52;;;;;;;3.80;2.10;;;;;;;19.90;64.44;99192.24;107920;1306;22309;-48
2023/07/11 06:29:17;;;;;;;6.00;1.90;;;;;;;19.98;64.21;99191.52;107961;1306;22228;-47
2023/07/11 06:31:44;;;;;;;2.50;1.60;;;;;;;20.00;63.32;99195.58;107892;1304;22473;-50
2023/07/11 06:34:10;;;;;;;7.00;2.40;;;;;;;20.00;62.93;99198.73;108020;1306;22411;-47
2023/07/11 06:36:36;;;;;;;11.30;2.50;;;;;;;20.06;63.34;99195.72;107917;1304;22928;-46
2023/07/11 06:39:02;;;;;;;4.50;2.10;;;;;;;20.12;63.62;99192.96;107638;1306;22322;-52
2023/07/11 06:41:28;;;;;;;3.80;2.50;;;;;;;20.17;63.45;99189.84;107781;1305;22469;-49
2023/07/11 06:43:54;;;;;;;4.20;1.90;;;;;;;20.19;63.45;99184.68;107899;1299;22223;-45
2023/07/11 06:46:19;;;;;;;1.80;1.60;;;;;;;20.24;63.64;99176.48;107646;1304;22765;-45
2023/07/11 06:48:45;;;;;;;3.00;1.80;;;;;;;20.37;63.61;99174.54;106817;1306;24216;-46
2023/07/11 06:51:10;;;;;;;10.00;2.10;;;;;;;20.46;62.36;99177.15;106914;1306;24232;-42
2023/07/11 06:53:36;;;;;;;7.70;2.10;;;;;;;20.53;62.32;99176.33;107263;1302;22432;-41
2023/07/11 06:56:03;;;;;;;6.20;2.00;;;;;;;20.63;63.00;99178.39;107080;1305;22562;-45
2023/07/11 06:58:28;;;;;;;2.60;1.80;;;;;;;20.75;62.41;99178.15;107310;1306;22605;-45
2023/07/11 07:00:56;;;;;;;6.60;1.70;;;;;;;20.85;62.29;99177.48;107037;1306;22548;-38
2023/07/11 07:03:23;;;;;;;2.10;1.70;;;;;;;20.91;60.60;99178.80;106765;1306;25078;-45
2023/07/11 07:05:50;;;;;;;1.90;1.70;;;;;;;20.96;61.54;99182.45;107016;1304;22707;-40
2023/07/11 07:08:16;;;;;;;8.00;2.10;;;;;;;21.10;60.88;99183.16;107033;1306;22594;-43
2023/07/11 07:10:46;;;;;;;5.10;1.70;;;;;;;21.26;60.97;99188.65;106815;1301;25287;-44
2023/07/11 07:13:12;;;;;;;2.00;1.60;;;;;;;21.42;60.03;99185.46;107275;1306;25051;-42
2023/07/11 07:15:37;;;;;;;3.90;1.90;;;;;;;21.46;59.23;99190.70;107527;1299;24218;-44
2023/07/11 07:18:02;;;;;;;3.30;1.60;;;;;;;21.54;59.07;99197.69;107421;1306;22575;-43
2023/07/11 07:20:28;;;;;;;9.20;2.00;;;;;;;21.59;57.91;99203.70;106796;1306;22552;-43
2023/07/11 07:22:53;;;;;;;4.70;2.10;;;;;;;21.61;57.42;99206.52;106779;1306;23466;-46
2023/07/11 07:25:18;;;;;;;6.40;2.00;;;;;;;21.65;57.95;99210.27;107153;1306;23010;-41
2023/07/11 07:27:44;;;;;;;6.70;1.90;;;;;;;21.71;57.91;99205.85;106768;1299;22552;-41
2023/07/11 07:30:11;;;;;;;3.60;1.80;;;;;;;21.76;57.66;99210.13;107333;1302;22588;-42
2023/07/11 07:32:37;;;;;;;3.20;2.10;;;;;;;21.75;56.57;99210.46;107947;1305;22256;-41
2023/07/11 07:35:03;;;;;;;5.80;2.00;;;;;;;21.79;57.57;99212.53;106928;1302;22554;-46
2023/07/11 07:37:29;;;;;;;6.30;1.60;;;;;;;21.88;57.21;99211.49;107679;1302;22616;-43
2023/07/11 07:39:54;;;;;;;3.50;2.00;;;;;;;21.93;56.78;99200.95;107848;1306;22248;-52
2023/07/11 07:42:19;;;;;;;6.60;1.80;;;;;;;21.96;56.60;99205.29;107571;1306;22508;-47
2023/07/11 07:44:45;;;;;;;2.00;1.60;;;;;;;21.97;56.23;99204.11;108028;1306;22233;-43
2023/07/11 07:47:10;;;;;;;5.70;1.80;;;;;;;22.00;56.42;99208.44;107926;1306;22405;-46
2023/07/11 07:49:35;;;;;;;4.30;1.60;;;;;;;22.00;55.89;99207.48;107406;1303;22577;-44
2023/07/11 07:52:01;;;;;;;3.40;1.80;;;;;;;22.04;55.70;99211.69;107910;1300;22259;-49
2023/07/11 07:54:26;;;;;;;6.50;1.90;;;;;;;22.09;55.88;99206.58;107951;1306;22930;-42
2023/07/11 07:56:53;;;;;;;2.50;1.80;;;;;;;22.22;55.28;99209.88;107937;1306;22846;-48
2023/07/11 07:59:18;;;;;;;4.10;1.60;;;;;;;22.33;54.74;99212.83;107888;1306;22239;-43
2023/07/11 08:01:45;;;;;;;2.40;1.80;;;;;;;22.52;55.18;99212.95;107998;1300;22320;-53
2023/07/11 08:04:10;;;;;;;10.30;1.90;;;;;;;22.66;53.98;99216.00;107919;1306;22377;-53
2023/07/11 08:06:35;;;;;;;3.50;1.60;;;;;;;22.75;53.34;99218.02;107942;1306;22291;-55
2023/07/11 08:09:01;;;;;;;7.60;1.90;;;;;;;22.87;52.74;99224.77;107558;1306;22243;-46
2023/07/11 08:11:26;;;;;;;2.80;1.70;;;;;;;22.90;50.97;99224.08;107881;1306;22223;-45
2023/07/11 08:13:52;;;;;;;3.90;1.60;;;;;;;22.95;52.29;99226.99;107958;1306;22311;-51
2023/07/11 08:16:18;;;;;;;4.70;1.90;;;;;;;23.01;52.25;99227.89;107877;1306;23196;-43
2023/07/11 08:18:44;;;;;;;3.50;1.60;;;;;;;23.07;51.09;99227.88;107405;1304;26188;-43
2023/07/11 08:21:09;;;;;;;5.40;1.70;;;;;;;23.11;50.73;99229.89;107488;1306;22481;-46
2023/07/11 08:23:35;;;;;;;2.60;1.90;;;;;;;23.16;49.67;99233.07;107237;1304;22535;-44
2023/07/11 08:26:00;;;;;;;2.30;1.70;;;;;;;23.22;49.65;99230.90;107187;1305;22206;-45
2023/07/11 08:28:26;;;;;;;1.80;1.40;;;;;;;23.28;49.79;99229.70;107752;1302;22561;-44
2023/07/11 08:30:51;;;;;;;3.80;1.60;;;;;;;23.48;50.34;99230.69;107552;1306;22252;-47
2023/07/11 08:33:17;;;;;;;3.30;1.30;;;;;;;23.64;48.58;99226.98;108003;1304;22284;-44
2023/07/11 08:35:42;;;;;;;2.50;1.50;;;;;;;23.78;48.92;99231.16;107870;1306;22307;-47
2023/07/11 08:38:11;;;;;;;3.70;1.90;;;;;;;23.92;48.53;99227.88;107988;1306;23052;-45
2023/07/11 08:40:44;;;;;;;3.30;1.90;;;;;;;24.19;48.55;99222.80;107655;1304;22269;-50
2023/07/11 08:43:15;;;;;;;3.20;2.30;;;;;;;24.42;47.29;99220.38;107982;1306;22393;-56
2023/07/11 08:46:10;;;;;;;2.50;1.50;;;;;;;24.59;46.29;99221.83;107850;1299;23181;-50
2023/07/11 08:48:42;;;;;;;2.80;1.50;;;;;;;24.77;46.11;99214.98;107104;1306;22556;-43
2023/07/11 08:51:33;;;;;;;3.50;1.60;;;;;;;24.92;44.59;99216.75;107427;1306;22611;-48
2023/07/11 08:54:13;;;;;;;2.10;1.30;;;;;;;24.99;43.61;99220.50;107680;1306;22459;-40
2023/07/11 08:56:45;;;;;;;4.10;1.40;;;;;;;25.00;42.51;99217.37;107909;1300;22266;-45
2023/07/11 08:59:22;;;;;;;3.50;1.90;;;;;;;25.12;43.96;99214.79;107713;1306;22913;-47
2023/07/11 09:01:47;;;;;;;;;;;;;;;25.43;42.81;99217.63;107677;1302;22578;-45
2023/07/11 09:04:20;;;;;;;2.60;1.70;;;;;;;25.68;41.85;99218.67;106887;1306;22970;-51
2023/07/11 09:06:54;;;;;;;4.70;1.50;;;;;;;25.73;42.08;99222.32;107001;1304;22346;-41
2023/07/11 09:09:20;;;;;;;7.00;1.60;;;;;;;25.52;41.27;99223.48;107627;1295;22563;-53
2023/07/11 09:11:54;;;;;;;3.50;1.60;;;;;;;25.15;41.04;99225.59;107070;1306;22579;-47
2023/07/11 09:14:19;;;;;;;1.60;1.40;;;;;;;24.89;41.83;99224.53;106913;1301;25329;-42
2023/07/11 09:17:00;;;;;;;2.70;1.70;;;;;;;24.80;42.23;99221.37;107285;1302;22575;-42
2023/07/11 09:19:48;;;;;;;7.60;1.50;;;;;;;25.16;42.39;99225.89;107371;1299;22568;-48
2023/07/11 09:22:41;;;;;;;4.40;1.60;;;;;;;25.68;41.44;99227.83;107549;1301;22555;-47
2023/07/11 09:25:26;;;;;;;3.40;1.50;;;;;;;25.81;40.58;99228.39;107431;1306;22569;-49
2023/07/11 09:27:56;;;;;;;4.70;1.70;;;;;;;26.00;39.74;99225.42;108059;1303;22243;-52
2023/07/11 09:30:33;;;;;;;6.50;2.10;;;;;;;26.19;39.42;99224.52;107978;1306;22241;-45
2023/07/11 09:33:12;;;;;;;;;;;;;;;26.35;39.48;99219.50;107969;1304;22484;-46
2023/07/11 09:35:37;;;;;;;5.00;1.70;;;;;;;26.23;39.12;99221.55;107053;1307;22592;-43
2023/07/11 09:38:18;;;;;;;4.80;1.80;;;;;;;26.02;39.26;99222.30;107156;1301;22584;-46
2023/07/11 09:40:50;;;;;;;1.80;1.60;;;;;;;25.98;39.77;99224.86;106999;1306;22560;-50
